Terminal Aerodrome Forecast
Issued by NWS

Home | Current Version | Previous Version | Graphics & Text | Print | Product List | Glossary On
Versions: 1 2 3 4 5 6 7 8 9 10 11 12 13
000
FTUS43 KMPX 210520
TAFRWF
TAF
KRWF 210520Z 2106/2206 30005KT P6SM FEW060
     FM211400 35006KT P6SM FEW035
     FM212200 03006KT P6SM SKC=

USA.gov is the U.S. government's official web portal to all federal, state and local government web resources and services.